createdAt,value
2023-01-08T00:03:00.525Z,-11.15
2023-01-08T00:06:05.415Z,-11.14
2023-01-08T00:09:08.528Z,-11.10
2023-01-08T00:12:11.741Z,-11.09
2023-01-08T00:15:14.905Z,-11.10
2023-01-08T00:18:18.134Z,-11.12
2023-01-08T00:21:21.632Z,-11.16
2023-01-08T00:24:24.890Z,-11.22
2023-01-08T00:27:28.175Z,-11.25
2023-01-08T00:30:31.527Z,-11.30
2023-01-08T00:33:34.859Z,-11.31
2023-01-08T00:36:38.107Z,-11.38
2023-01-08T00:39:41.394Z,-11.38
2023-01-08T00:42:45.061Z,-11.45
2023-01-08T00:45:48.239Z,-11.47
2023-01-08T00:48:51.460Z,-11.54
2023-01-08T00:51:54.563Z,-11.53
2023-01-08T00:54:57.788Z,-11.57
2023-01-08T00:58:01.041Z,-11.60
2023-01-08T01:01:10.022Z,-11.56
2023-01-08T01:04:13.257Z,-11.55
2023-01-08T01:07:16.427Z,-11.53
2023-01-08T01:10:19.697Z,-11.53
2023-01-08T01:13:22.947Z,-11.46
2023-01-08T01:16:26.296Z,-11.46
2023-01-08T01:19:29.460Z,-11.45
2023-01-08T01:22:32.688Z,-11.43
2023-01-08T01:25:38.808Z,-11.35
2023-01-08T01:28:41.999Z,-11.26
2023-01-08T01:31:45.160Z,-11.18
2023-01-08T01:34:48.453Z,-11.13
2023-01-08T01:37:51.669Z,-11.04
2023-01-08T01:40:54.773Z,-10.97
2023-01-08T01:44:00.116Z,-10.89
2023-01-08T01:47:27.140Z,-10.79
2023-01-08T01:50:34.100Z,-10.74
2023-01-08T01:53:38.434Z,-10.68
2023-01-08T01:56:42.712Z,-10.58
2023-01-08T01:59:48.240Z,-10.46
2023-01-08T02:02:52.316Z,-10.38
2023-01-08T02:05:59.154Z,-10.26
2023-01-08T02:09:24.668Z,-10.17
2023-01-08T02:12:38.265Z,-10.18
2023-01-08T02:15:56.522Z,-10.12
2023-01-08T02:19:07.427Z,-10.05
2023-01-08T02:22:34.871Z,-9.97
2023-01-08T02:25:59.878Z,-9.90
2023-01-08T02:29:15.850Z,-9.84
2023-01-08T02:32:19.497Z,-9.81
2023-01-08T02:35:23.093Z,-9.75
2023-01-08T02:38:27.429Z,-9.68
2023-01-08T02:41:38.638Z,-9.57
2023-01-08T02:45:15.715Z,-9.47
2023-01-08T02:48:30.759Z,-9.43
2023-01-08T02:51:55.597Z,-9.33
2023-01-08T02:55:01.165Z,-9.18
2023-01-08T02:58:05.928Z,-9.13
2023-01-08T03:01:13.046Z,-9.05
2023-01-08T03:04:21.071Z,-8.96
2023-01-08T03:07:24.756Z,-8.86
2023-01-08T03:10:31.118Z,-8.74
2023-01-08T03:13:58.676Z,-8.63
2023-01-08T03:17:27.213Z,-8.58
2023-01-08T03:20:32.068Z,-8.51
2023-01-08T03:23:38.011Z,-8.41
2023-01-08T03:26:43.769Z,-8.37
2023-01-08T03:29:51.441Z,-8.24
2023-01-08T03:33:02.466Z,-8.21
2023-01-08T03:36:07.998Z,-8.15
2023-01-08T03:39:23.266Z,-8.06
2023-01-08T03:42:28.951Z,-8.02
2023-01-08T03:45:33.988Z,-7.94
2023-01-08T03:48:43.260Z,-7.82
2023-01-08T03:51:53.799Z,-7.72
2023-01-08T03:54:57.681Z,-7.60
2023-01-08T03:58:02.341Z,-7.54
2023-01-08T04:01:05.488Z,-7.45
2023-01-08T04:04:13.477Z,-7.28
2023-01-08T04:07:22.609Z,-7.19
2023-01-08T04:10:27.174Z,-7.14
2023-01-08T04:13:35.163Z,-7.06
2023-01-08T04:16:39.041Z,-6.93
2023-01-08T04:19:54.289Z,-6.86
2023-01-08T04:23:01.786Z,-6.78
2023-01-08T04:26:07.379Z,-6.66
2023-01-08T04:29:13.313Z,-6.63
2023-01-08T04:32:20.545Z,-6.62
2023-01-08T04:35:31.161Z,-6.57
2023-01-08T04:38:40.470Z,-6.54
2023-01-08T04:41:43.849Z,-6.57
2023-01-08T04:44:51.773Z,-6.50
2023-01-08T04:48:00.015Z,-6.47
2023-01-08T04:51:05.455Z,-6.44
2023-01-08T04:54:10.108Z,-6.39
2023-01-08T04:57:14.586Z,-6.32
2023-01-08T05:00:18.211Z,-6.24
2023-01-08T05:03:22.503Z,-6.20
2023-01-08T05:06:27.539Z,-6.15
2023-01-08T05:09:31.377Z,-6.10
2023-01-08T05:12:34.809Z,-6.06
2023-01-08T05:15:38.483Z,-5.99
2023-01-08T05:18:43.092Z,-5.91
2023-01-08T05:21:47.853Z,-5.89
2023-01-08T05:24:52.015Z,-5.83
2023-01-08T05:27:55.779Z,-5.82
2023-01-08T05:31:02.373Z,-5.79
2023-01-08T05:34:07.113Z,-5.78
2023-01-08T05:37:10.215Z,-5.72
2023-01-08T05:40:13.524Z,-5.68
2023-01-08T05:43:16.729Z,-5.65
2023-01-08T05:46:19.930Z,-5.62
2023-01-08T05:49:24.529Z,-5.60
2023-01-08T05:52:28.315Z,-5.64
2023-01-08T05:55:31.389Z,-5.68
2023-01-08T05:58:34.916Z,-5.69
2023-01-08T06:01:38.434Z,-5.67
2023-01-08T06:04:41.708Z,-5.67
2023-01-08T06:07:44.938Z,-5.68
2023-01-08T06:10:48.204Z,-5.67
2023-01-08T06:13:51.823Z,-5.64
2023-01-08T06:16:55.081Z,-5.68
2023-01-08T06:19:58.297Z,-5.74
2023-01-08T06:23:01.565Z,-5.74
2023-01-08T06:26:05.267Z,-5.74
2023-01-08T06:29:09.106Z,-5.71
2023-01-08T06:32:12.348Z,-5.70
2023-01-08T06:35:16.244Z,-5.67
2023-01-08T06:38:22.765Z,-5.67
2023-01-08T06:41:25.966Z,-5.65
2023-01-08T06:44:29.471Z,-5.70
2023-01-08T06:47:33.564Z,-5.70
2023-01-08T06:50:36.747Z,-5.76
2023-01-08T06:53:39.916Z,-5.71
2023-01-08T06:56:53.310Z,-5.67
2023-01-08T06:59:57.366Z,-5.69
2023-01-08T07:03:00.764Z,-5.49
2023-01-08T07:06:04.501Z,-5.17
2023-01-08T07:09:07.639Z,-5.12
2023-01-08T07:12:16.497Z,-5.23
2023-01-08T07:15:19.806Z,-5.40
2023-01-08T07:18:23.283Z,-5.55
2023-01-08T07:21:26.533Z,-5.62
2023-01-08T07:24:29.901Z,-5.70
2023-01-08T07:27:33.277Z,-5.78
2023-01-08T07:30:36.529Z,-5.84
2023-01-08T07:33:39.891Z,-5.92
2023-01-08T07:36:43.055Z,-5.96
2023-01-08T07:39:46.404Z,-6.02
2023-01-08T07:42:49.835Z,-6.05
2023-01-08T07:45:53.132Z,-6.12
2023-01-08T07:48:58.156Z,-6.15
2023-01-08T07:52:01.434Z,-6.31
2023-01-08T07:55:04.919Z,-6.38
2023-01-08T07:58:13.099Z,-5.86
2023-01-08T08:01:16.846Z,-5.82
2023-01-08T08:04:20.520Z,-6.03
2023-01-08T08:07:23.694Z,-6.27
2023-01-08T08:10:27.205Z,-6.41
2023-01-08T08:13:31.281Z,-6.56
2023-01-08T08:16:34.667Z,-6.69
2023-01-08T08:19:37.804Z,-6.81
2023-01-08T08:22:41.104Z,-6.91
2023-01-08T08:25:44.515Z,-6.93
2023-01-08T08:28:47.684Z,-6.97
2023-01-08T08:31:50.915Z,-7.05
2023-01-08T08:34:56.454Z,-7.11
2023-01-08T08:38:00.967Z,-7.20
2023-01-08T08:41:04.305Z,-7.27
2023-01-08T08:44:07.792Z,-7.38
2023-01-08T08:47:11.400Z,-7.47
2023-01-08T08:50:15.695Z,-7.55
2023-01-08T08:53:19.307Z,-7.57
2023-01-08T08:56:22.621Z,-7.56
2023-01-08T08:59:28.818Z,-7.66
2023-01-08T09:02:33.612Z,-7.73
2023-01-08T09:05:38.040Z,-7.74
2023-01-08T09:08:41.355Z,-7.84
2023-01-08T09:11:44.752Z,-7.83
2023-01-08T09:14:51.171Z,-7.92
2023-01-08T09:17:58.697Z,-7.99
2023-01-08T09:21:06.756Z,-8.05
2023-01-08T09:24:10.818Z,-8.12
2023-01-08T09:27:20.726Z,-8.17
2023-01-08T09:30:24.301Z,-8.25
2023-01-08T09:33:28.393Z,-8.25
2023-01-08T09:36:41.221Z,-8.34
2023-01-08T09:39:57.715Z,-8.40
2023-01-08T09:43:15.126Z,-8.40
2023-01-08T09:46:21.288Z,-8.42
2023-01-08T09:49:35.814Z,-8.44
2023-01-08T09:52:44.574Z,-8.50
2023-01-08T09:56:09.161Z,-8.51
2023-01-08T09:59:17.349Z,-8.57
2023-01-08T10:02:29.523Z,-8.66
2023-01-08T10:05:35.045Z,-8.79
2023-01-08T10:08:42.769Z,-8.89
2023-01-08T10:11:50.152Z,-8.92
2023-01-08T10:15:05.629Z,-9.03
2023-01-08T10:18:18.357Z,-9.07
2023-01-08T10:21:41.475Z,-9.08
2023-01-08T10:24:53.130Z,-9.13
2023-01-08T10:28:05.873Z,-9.24
2023-01-08T10:31:17.742Z,-9.35
2023-01-08T10:34:33.330Z,-9.49
2023-01-08T10:37:43.979Z,-9.60
2023-01-08T10:40:50.743Z,-9.63
2023-01-08T10:44:03.734Z,-9.69
2023-01-08T10:47:07.499Z,-9.76
2023-01-08T10:50:30.406Z,-9.91
2023-01-08T10:53:49.423Z,-10.22
2023-01-08T10:56:53.604Z,-10.24
2023-01-08T10:59:58.132Z,-10.31
2023-01-08T11:03:07.030Z,-10.46
2023-01-08T11:06:20.301Z,-10.56
2023-01-08T11:09:38.684Z,-10.59
2023-01-08T11:12:43.307Z,-10.64
2023-01-08T11:15:47.523Z,-10.64
2023-01-08T11:18:52.076Z,-10.66
2023-01-08T11:22:07.927Z,-10.75
2023-01-08T11:25:15.488Z,-10.81
2023-01-08T11:28:27.232Z,-10.83
2023-01-08T11:31:42.850Z,-10.83
2023-01-08T11:34:57.083Z,-10.86
2023-01-08T11:38:04.472Z,-10.90
2023-01-08T11:41:20.046Z,-10.99
2023-01-08T11:44:49.698Z,-11.02
2023-01-08T11:48:19.383Z,-10.95
2023-01-08T11:51:57.146Z,-10.93
2023-01-08T11:55:01.728Z,-10.89
2023-01-08T11:58:29.196Z,-10.89
2023-01-08T12:01:56.019Z,-10.87
2023-01-08T12:05:37.513Z,-10.85
2023-01-08T12:09:11.939Z,-10.86
2023-01-08T12:12:33.247Z,-10.92
2023-01-08T12:16:16.326Z,-11.01
2023-01-08T12:19:28.057Z,-11.06
2023-01-08T12:22:46.757Z,-11.16
2023-01-08T12:26:10.498Z,-11.20
2023-01-08T12:29:41.279Z,-11.28
2023-01-08T12:33:07.331Z,-11.35
2023-01-08T12:39:43.052Z,-11.41
2023-01-08T12:42:59.856Z,-11.37
2023-01-08T12:46:06.760Z,-11.37
2023-01-08T12:49:20.518Z,-11.30
2023-01-08T12:52:37.714Z,-11.29
2023-01-08T12:55:55.568Z,-11.33
2023-01-08T12:59:07.858Z,-11.33
2023-01-08T13:02:48.600Z,-11.27
2023-01-08T13:05:53.137Z,-11.31
2023-01-08T13:09:01.210Z,-11.36
2023-01-08T13:12:06.475Z,-11.36
2023-01-08T13:15:19.766Z,-11.37
2023-01-08T13:18:24.087Z,-11.30
2023-01-08T13:21:46.236Z,-11.23
2023-01-08T13:24:50.463Z,-11.18
2023-01-08T13:27:57.491Z,-11.19
2023-01-08T13:31:29.064Z,-11.23
2023-01-08T13:34:42.931Z,-11.20
2023-01-08T13:37:52.407Z,-11.11
2023-01-08T13:40:57.908Z,-11.01
2023-01-08T13:44:08.631Z,-10.99
2023-01-08T13:47:48.140Z,-10.93
2023-01-08T13:50:54.747Z,-10.90
2023-01-08T13:54:06.286Z,-10.98
2023-01-08T13:57:21.054Z,-11.10
2023-01-08T14:00:32.273Z,-11.15
2023-01-08T14:03:45.372Z,-11.15
2023-01-08T14:06:48.416Z,-11.17
2023-01-08T14:09:52.308Z,-11.16
2023-01-08T14:13:09.340Z,-11.15
2023-01-08T14:16:15.820Z,-11.05
2023-01-08T14:19:24.549Z,-11.05
2023-01-08T14:22:33.194Z,-10.98
2023-01-08T14:25:36.588Z,-11.02
2023-01-08T14:28:39.686Z,-11.12
2023-01-08T14:31:52.723Z,-11.16
2023-01-08T14:34:58.729Z,-11.10
2023-01-08T14:38:03.632Z,-11.10
2023-01-08T14:41:12.276Z,-11.06
2023-01-08T14:44:19.010Z,-11.06
2023-01-08T14:47:30.253Z,-11.11
2023-01-08T14:50:36.950Z,-11.21
2023-01-08T14:53:49.822Z,-11.33
2023-01-08T14:56:58.218Z,-11.40
2023-01-08T15:00:02.867Z,-11.42
2023-01-08T15:03:06.929Z,-11.41
2023-01-08T15:06:14.710Z,-11.46
2023-01-08T15:09:28.005Z,-11.56
2023-01-08T15:12:33.019Z,-11.57
2023-01-08T15:15:42.513Z,-11.52
2023-01-08T15:18:48.037Z,-11.47
2023-01-08T15:21:54.133Z,-11.51
2023-01-08T15:25:09.460Z,-11.54
2023-01-08T15:28:16.361Z,-11.60
2023-01-08T15:31:29.365Z,-11.74
2023-01-08T15:34:32.589Z,-11.88
2023-01-08T15:37:35.837Z,-12.00
2023-01-08T15:40:39.030Z,-12.18
2023-01-08T15:43:43.668Z,-12.31
2023-01-08T15:46:46.977Z,-12.32
2023-01-08T15:49:50.568Z,-12.30
2023-01-08T15:52:54.195Z,-12.30
2023-01-08T15:55:57.345Z,-12.29
2023-01-08T15:59:00.707Z,-12.28
2023-01-08T16:02:03.956Z,-12.25
2023-01-08T16:05:07.353Z,-12.25
2023-01-08T16:08:12.725Z,-12.35
2023-01-08T16:11:17.518Z,-12.43
2023-01-08T16:14:20.614Z,-12.48
2023-01-08T16:17:23.900Z,-12.65
2023-01-08T16:20:27.499Z,-12.76
2023-01-08T16:23:31.135Z,-12.85
2023-01-08T16:26:34.421Z,-12.87
2023-01-08T16:29:37.524Z,-12.87
2023-01-08T16:32:40.746Z,-12.85
2023-01-08T16:35:43.904Z,-12.84
2023-01-08T16:38:49.025Z,-12.82
2023-01-08T16:41:52.217Z,-12.83
2023-01-08T16:44:55.447Z,-12.79
2023-01-08T16:47:58.656Z,-12.74
2023-01-08T16:51:06.554Z,-12.74
2023-01-08T16:54:13.429Z,-12.79
2023-01-08T16:57:16.556Z,-12.85
2023-01-08T17:00:20.075Z,-12.91
2023-01-08T17:03:23.325Z,-12.95
2023-01-08T17:06:26.525Z,-13.05
2023-01-08T17:09:29.944Z,-13.20
2023-01-08T17:12:33.146Z,-13.34
2023-01-08T17:15:38.153Z,-13.43
2023-01-08T17:18:42.096Z,-13.49
2023-01-08T17:21:46.584Z,-13.53
2023-01-08T17:24:49.985Z,-13.55
2023-01-08T17:27:54.108Z,-13.52
2023-01-08T17:31:09.781Z,-13.48
2023-01-08T17:34:14.690Z,-13.56
2023-01-08T17:37:17.910Z,-13.63
2023-01-08T17:40:21.137Z,-13.65
2023-01-08T17:43:24.252Z,-13.71
2023-01-08T17:46:27.833Z,-13.83
2023-01-08T17:49:31.707Z,-13.97
2023-01-08T17:52:34.875Z,-14.11
2023-01-08T17:55:38.127Z,-14.20
2023-01-08T17:58:41.621Z,-14.26
2023-01-08T18:01:45.987Z,-14.25
2023-01-08T18:04:49.546Z,-14.26
2023-01-08T18:07:52.729Z,-14.27
2023-01-08T18:10:55.719Z,-14.20
2023-01-08T18:14:00.414Z,-14.17
2023-01-08T18:17:03.637Z,-14.39
2023-01-08T18:20:07.699Z,-14.74
2023-01-08T18:23:10.868Z,-14.82
2023-01-08T18:26:16.122Z,-14.84
2023-01-08T18:29:19.213Z,-15.06
2023-01-08T18:32:26.881Z,-15.19
2023-01-08T18:35:31.087Z,-15.33
2023-01-08T18:38:35.113Z,-15.33
2023-01-08T18:41:57.430Z,-15.28
2023-01-08T18:45:01.173Z,-15.35
2023-01-08T18:48:04.370Z,-15.39
2023-01-08T18:51:08.165Z,-15.41
2023-01-08T18:54:12.223Z,-15.39
2023-01-08T18:57:15.492Z,-15.35
2023-01-08T19:00:19.201Z,-15.32
2023-01-08T19:03:22.640Z,-15.35
2023-01-08T19:06:25.966Z,-15.37
2023-01-08T19:09:29.224Z,-15.31
2023-01-08T19:12:33.014Z,-15.37
2023-01-08T19:15:36.872Z,-15.54
2023-01-08T19:18:41.051Z,-15.59
2023-01-08T19:21:44.015Z,-15.64
2023-01-08T19:24:47.711Z,-15.66
2023-01-08T19:27:50.784Z,-15.69
2023-01-08T19:31:01.065Z,-15.59
2023-01-08T19:34:04.934Z,-15.59
2023-01-08T19:37:08.669Z,-15.55
2023-01-08T19:40:12.535Z,-15.47
2023-01-08T19:43:34.161Z,-15.50
2023-01-08T19:46:37.678Z,-15.50
2023-01-08T19:49:43.520Z,-15.51
2023-01-08T19:52:46.618Z,-15.52
2023-01-08T19:55:49.777Z,-15.51
2023-01-08T19:58:52.934Z,-15.49
2023-01-08T20:01:56.190Z,-15.41
2023-01-08T20:04:59.358Z,-15.31
2023-01-08T20:08:02.770Z,-15.26
2023-01-08T20:11:16.152Z,-15.14
2023-01-08T20:14:20.998Z,-15.14
2023-01-08T20:17:26.971Z,-15.20
2023-01-08T20:20:30.210Z,-15.28
2023-01-08T20:23:33.829Z,-15.30
2023-01-08T20:26:37.963Z,-15.27
2023-01-08T20:29:40.789Z,-15.16
2023-01-08T20:32:43.914Z,-15.12
2023-01-08T20:35:47.033Z,-15.16
2023-01-08T20:38:55.275Z,-15.11
2023-01-08T20:42:04.230Z,-15.04
2023-01-08T20:45:09.292Z,-15.13
2023-01-08T20:48:12.486Z,-15.18
2023-01-08T20:51:16.326Z,-15.56
2023-01-08T20:54:19.508Z,-15.80
2023-01-08T20:57:22.754Z,-15.80
2023-01-08T21:00:26.517Z,-16.13
2023-01-08T21:03:29.590Z,-16.34
2023-01-08T21:06:34.180Z,-16.37
2023-01-08T21:09:38.518Z,-16.34
2023-01-08T21:12:43.040Z,-16.17
2023-01-08T21:15:46.181Z,-16.06
2023-01-08T21:18:49.810Z,-16.04
2023-01-08T21:21:53.164Z,-15.92
2023-01-08T21:24:56.260Z,-15.77
2023-01-08T21:27:59.393Z,-15.70
2023-01-08T21:31:23.477Z,-15.54
2023-01-08T21:34:26.732Z,-15.43
2023-01-08T21:37:32.068Z,-15.31
2023-01-08T21:40:35.240Z,-15.18
2023-01-08T21:43:57.008Z,-15.25
2023-01-08T21:47:04.735Z,-15.33
2023-01-08T21:50:09.141Z,-15.29
2023-01-08T21:53:30.713Z,-15.21
2023-01-08T21:56:34.050Z,-15.29
2023-01-08T21:59:37.447Z,-15.55
2023-01-08T22:02:40.831Z,-15.70
2023-01-08T22:05:44.283Z,-15.83
2023-01-08T22:08:52.345Z,-15.80
2023-01-08T22:11:56.781Z,-15.65
2023-01-08T22:15:00.010Z,-15.50
2023-01-08T22:18:03.144Z,-15.38
2023-01-08T22:21:09.370Z,-15.34
2023-01-08T22:24:12.804Z,-15.41
2023-01-08T22:27:15.896Z,-15.44
2023-01-08T22:30:19.445Z,-15.43
2023-01-08T22:33:22.497Z,-15.46
2023-01-08T22:36:25.876Z,-15.64
2023-01-08T22:39:29.194Z,-15.92
2023-01-08T22:42:32.307Z,-16.06
2023-01-08T22:45:35.749Z,-15.97
2023-01-08T22:48:39.006Z,-15.75
2023-01-08T22:51:46.078Z,-15.61
2023-01-08T22:54:49.184Z,-15.54
2023-01-08T22:57:55.387Z,-15.53
2023-01-08T23:00:58.403Z,-15.76
2023-01-08T23:04:02.290Z,-15.98
2023-01-08T23:07:05.553Z,-15.93
2023-01-08T23:10:09.532Z,-15.76
2023-01-08T23:13:12.843Z,-15.65
2023-01-08T23:16:17.841Z,-15.58
2023-01-08T23:19:20.961Z,-15.75
2023-01-08T23:22:24.128Z,-15.98
2023-01-08T23:25:28.759Z,-16.06
2023-01-08T23:28:32.509Z,-15.98
2023-01-08T23:31:38.339Z,-15.87
2023-01-08T23:34:41.589Z,-15.81
2023-01-08T23:37:44.956Z,-15.80
2023-01-08T23:40:48.315Z,-15.82
2023-01-08T23:43:51.583Z,-15.91
2023-01-08T23:46:55.042Z,-16.00
2023-01-08T23:49:58.212Z,-16.01
2023-01-08T23:53:01.420Z,-16.06
2023-01-08T23:56:04.740Z,-16.13
2023-01-08T23:59:08.900Z,-16.33
